sensor_id;sensor_type;location;lat;lon;timestamp;P1;durP1;ratioP1;P2;durP2;ratioP2
33150;SDS011;19508;42.578;23.416;2022-09-01T00:01:20;20.23;;;12.88;;
33150;SDS011;19508;42.578;23.416;2022-09-01T00:03:48;19.45;;;13.15;;
33150;SDS011;19508;42.578;23.416;2022-09-01T00:06:17;19.58;;;13.60;;
33150;SDS011;19508;42.578;23.416;2022-09-01T00:09:05;25.52;;;12.82;;
33150;SDS011;19508;42.578;23.416;2022-09-01T00:11:32;19.02;;;13.20;;
33150;SDS011;19508;42.578;23.416;2022-09-01T00:14:00;21.05;;;12.55;;
33150;SDS011;19508;42.578;23.416;2022-09-01T00:16:27;25.35;;;12.25;;
33150;SDS011;19508;42.578;23.416;2022-09-01T00:18:54;21.27;;;12.13;;
33150;SDS011;19508;42.578;23.416;2022-09-01T00:21:27;20.45;;;13.20;;
33150;SDS011;19508;42.578;23.416;2022-09-01T00:24:04;20.42;;;12.38;;
33150;SDS011;19508;42.578;23.416;2022-09-01T00:26:30;22.80;;;12.55;;
33150;SDS011;19508;42.578;23.416;2022-09-01T00:28:56;20.92;;;12.50;;
33150;SDS011;19508;42.578;23.416;2022-09-01T00:31:22;20.77;;;12.95;;
33150;SDS011;19508;42.578;23.416;2022-09-01T00:33:49;23.08;;;14.27;;
33150;SDS011;19508;42.578;23.416;2022-09-01T00:36:15;24.88;;;13.68;;
33150;SDS011;19508;42.578;23.416;2022-09-01T00:38:42;27.35;;;14.00;;
33150;SDS011;19508;42.578;23.416;2022-09-01T00:41:09;26.63;;;13.00;;
33150;SDS011;19508;42.578;23.416;2022-09-01T00:43:57;19.73;;;13.90;;
33150;SDS011;19508;42.578;23.416;2022-09-01T00:46:26;21.60;;;14.63;;
33150;SDS011;19508;42.578;23.416;2022-09-01T00:49:11;20.27;;;14.57;;
33150;SDS011;19508;42.578;23.416;2022-09-01T00:51:41;27.83;;;14.57;;
33150;SDS011;19508;42.578;23.416;2022-09-01T00:56:40;22.90;;;14.80;;
33150;SDS011;19508;42.578;23.416;2022-09-01T00:59:07;21.40;;;13.27;;
33150;SDS011;19508;42.578;23.416;2022-09-01T01:01:35;18.00;;;13.77;;
33150;SDS011;19508;42.578;23.416;2022-09-01T01:04:01;20.30;;;12.65;;
33150;SDS011;19508;42.578;23.416;2022-09-01T01:06:28;19.73;;;12.95;;
33150;SDS011;19508;42.578;23.416;2022-09-01T01:08:57;20.73;;;13.15;;
33150;SDS011;19508;42.578;23.416;2022-09-01T01:11:29;24.17;;;12.50;;
33150;SDS011;19508;42.578;23.416;2022-09-01T01:14:00;18.73;;;14.07;;
33150;SDS011;19508;42.578;23.416;2022-09-01T01:16:36;20.33;;;13.73;;
33150;SDS011;19508;42.578;23.416;2022-09-01T01:19:08;26.75;;;14.73;;
33150;SDS011;19508;42.578;23.416;2022-09-01T01:25:35;33.22;;;16.40;;
33150;SDS011;19508;42.578;23.416;2022-09-01T01:28:13;38.10;;;17.70;;
33150;SDS011;19508;42.578;23.416;2022-09-01T01:31:01;29.42;;;17.02;;
33150;SDS011;19508;42.578;23.416;2022-09-01T01:33:41;32.70;;;17.92;;
33150;SDS011;19508;42.578;23.416;2022-09-01T01:36:19;31.95;;;19.17;;
33150;SDS011;19508;42.578;23.416;2022-09-01T01:38:56;31.77;;;19.02;;
33150;SDS011;19508;42.578;23.416;2022-09-01T01:41:26;34.78;;;18.48;;
33150;SDS011;19508;42.578;23.416;2022-09-01T01:43:52;35.35;;;19.10;;
33150;SDS011;19508;42.578;23.416;2022-09-01T01:46:17;33.22;;;17.25;;
33150;SDS011;19508;42.578;23.416;2022-09-01T01:48:43;23.30;;;15.82;;
33150;SDS011;19508;42.578;23.416;2022-09-01T01:51:09;27.10;;;15.90;;
33150;SDS011;19508;42.578;23.416;2022-09-01T01:53:36;27.80;;;14.90;;
33150;SDS011;19508;42.578;23.416;2022-09-01T01:56:02;23.63;;;15.20;;
33150;SDS011;19508;42.578;23.416;2022-09-01T01:58:30;26.60;;;13.98;;
33150;SDS011;19508;42.578;23.416;2022-09-01T02:00:57;26.95;;;14.57;;
33150;SDS011;19508;42.578;23.416;2022-09-01T02:03:25;24.05;;;13.65;;
33150;SDS011;19508;42.578;23.416;2022-09-01T02:05:54;28.25;;;14.63;;
33150;SDS011;19508;42.578;23.416;2022-09-01T02:08:23;27.80;;;14.38;;
33150;SDS011;19508;42.578;23.416;2022-09-01T02:10:52;22.88;;;13.63;;
33150;SDS011;19508;42.578;23.416;2022-09-01T02:13:20;24.88;;;14.75;;
33150;SDS011;19508;42.578;23.416;2022-09-01T02:15:51;23.08;;;14.02;;
33150;SDS011;19508;42.578;23.416;2022-09-01T02:18:35;34.25;;;15.48;;
33150;SDS011;19508;42.578;23.416;2022-09-01T02:21:03;22.00;;;16.00;;
33150;SDS011;19508;42.578;23.416;2022-09-01T02:23:34;29.55;;;15.48;;
33150;SDS011;19508;42.578;23.416;2022-09-01T02:26:04;26.35;;;14.98;;
33150;SDS011;19508;42.578;23.416;2022-09-01T02:28:33;28.98;;;17.20;;
33150;SDS011;19508;42.578;23.416;2022-09-01T02:31:05;27.73;;;16.67;;
33150;SDS011;19508;42.578;23.416;2022-09-01T02:33:33;29.60;;;17.23;;
33150;SDS011;19508;42.578;23.416;2022-09-01T02:36:05;30.38;;;16.55;;
33150;SDS011;19508;42.578;23.416;2022-09-01T02:38:38;22.20;;;14.43;;
33150;SDS011;19508;42.578;23.416;2022-09-01T02:41:07;23.23;;;14.13;;
33150;SDS011;19508;42.578;23.416;2022-09-01T02:43:40;24.42;;;14.90;;
33150;SDS011;19508;42.578;23.416;2022-09-01T02:46:10;24.23;;;13.93;;
33150;SDS011;19508;42.578;23.416;2022-09-01T02:48:38;26.73;;;14.70;;
33150;SDS011;19508;42.578;23.416;2022-09-01T02:51:08;25.45;;;14.63;;
33150;SDS011;19508;42.578;23.416;2022-09-01T02:53:38;24.27;;;14.80;;
33150;SDS011;19508;42.578;23.416;2022-09-01T02:56:08;26.00;;;14.77;;
33150;SDS011;19508;42.578;23.416;2022-09-01T02:58:42;19.75;;;13.88;;
33150;SDS011;19508;42.578;23.416;2022-09-01T03:01:19;20.57;;;13.97;;
33150;SDS011;19508;42.578;23.416;2022-09-01T03:03:49;26.75;;;14.60;;
33150;SDS011;19508;42.578;23.416;2022-09-01T03:06:33;23.40;;;15.23;;
33150;SDS011;19508;42.578;23.416;2022-09-01T03:09:00;34.63;;;14.18;;
33150;SDS011;19508;42.578;23.416;2022-09-01T03:11:35;24.35;;;15.15;;
33150;SDS011;19508;42.578;23.416;2022-09-01T03:14:08;24.83;;;15.00;;
33150;SDS011;19508;42.578;23.416;2022-09-01T03:16:38;22.77;;;15.50;;
33150;SDS011;19508;42.578;23.416;2022-09-01T03:19:06;25.75;;;14.35;;
33150;SDS011;19508;42.578;23.416;2022-09-01T03:21:34;20.65;;;15.00;;
33150;SDS011;19508;42.578;23.416;2022-09-01T03:24:09;24.33;;;13.70;;
33150;SDS011;19508;42.578;23.416;2022-09-01T03:26:38;24.67;;;14.50;;
33150;SDS011;19508;42.578;23.416;2022-09-01T03:29:06;21.17;;;14.88;;
33150;SDS011;19508;42.578;23.416;2022-09-01T03:31:34;24.73;;;14.23;;
33150;SDS011;19508;42.578;23.416;2022-09-01T03:34:01;23.58;;;14.32;;
33150;SDS011;19508;42.578;23.416;2022-09-01T03:36:34;29.73;;;15.43;;
33150;SDS011;19508;42.578;23.416;2022-09-01T03:39:01;26.00;;;15.13;;
33150;SDS011;19508;42.578;23.416;2022-09-01T03:41:28;21.17;;;14.75;;
33150;SDS011;19508;42.578;23.416;2022-09-01T03:43:55;28.92;;;14.68;;
33150;SDS011;19508;42.578;23.416;2022-09-01T03:46:27;27.83;;;15.05;;
33150;SDS011;19508;42.578;23.416;2022-09-01T03:48:56;25.33;;;13.82;;
33150;SDS011;19508;42.578;23.416;2022-09-01T03:51:25;22.35;;;14.88;;
33150;SDS011;19508;42.578;23.416;2022-09-01T03:53:51;25.90;;;13.85;;
33150;SDS011;19508;42.578;23.416;2022-09-01T03:56:23;23.83;;;13.07;;
33150;SDS011;19508;42.578;23.416;2022-09-01T03:58:53;29.95;;;15.20;;
33150;SDS011;19508;42.578;23.416;2022-09-01T04:01:27;22.02;;;15.00;;
33150;SDS011;19508;42.578;23.416;2022-09-01T04:03:56;29.17;;;16.38;;
33150;SDS011;19508;42.578;23.416;2022-09-01T04:06:22;24.13;;;15.48;;
33150;SDS011;19508;42.578;23.416;2022-09-01T04:08:48;26.67;;;15.82;;
33150;SDS011;19508;42.578;23.416;2022-09-01T04:11:34;26.80;;;16.30;;
33150;SDS011;19508;42.578;23.416;2022-09-01T04:14:04;28.75;;;16.27;;
33150;SDS011;19508;42.578;23.416;2022-09-01T04:16:31;27.95;;;16.52;;
33150;SDS011;19508;42.578;23.416;2022-09-01T04:19:20;30.83;;;15.95;;
33150;SDS011;19508;42.578;23.416;2022-09-01T04:21:55;26.48;;;15.85;;
33150;SDS011;19508;42.578;23.416;2022-09-01T04:24:26;20.70;;;11.65;;
33150;SDS011;19508;42.578;23.416;2022-09-01T04:26:55;24.75;;;15.68;;
33150;SDS011;19508;42.578;23.416;2022-09-01T04:29:25;30.13;;;16.88;;
33150;SDS011;19508;42.578;23.416;2022-09-01T04:31:58;32.63;;;15.93;;
33150;SDS011;19508;42.578;23.416;2022-09-01T04:34:29;28.92;;;16.52;;
33150;SDS011;19508;42.578;23.416;2022-09-01T04:37:11;24.65;;;16.30;;
33150;SDS011;19508;42.578;23.416;2022-09-01T04:39:51;26.52;;;15.85;;
33150;SDS011;19508;42.578;23.416;2022-09-01T04:42:18;34.72;;;15.43;;
33150;SDS011;19508;42.578;23.416;2022-09-01T04:44:49;29.17;;;15.45;;
33150;SDS011;19508;42.578;23.416;2022-09-01T04:47:15;22.50;;;14.93;;
33150;SDS011;19508;42.578;23.416;2022-09-01T04:49:53;26.65;;;15.57;;
33150;SDS011;19508;42.578;23.416;2022-09-01T04:52:23;33.78;;;16.02;;
33150;SDS011;19508;42.578;23.416;2022-09-01T04:54:49;28.10;;;15.75;;
33150;SDS011;19508;42.578;23.416;2022-09-01T04:57:15;29.48;;;15.32;;
33150;SDS011;19508;42.578;23.416;2022-09-01T04:59:42;25.88;;;15.52;;
33150;SDS011;19508;42.578;23.416;2022-09-01T05:02:08;19.88;;;14.07;;
33150;SDS011;19508;42.578;23.416;2022-09-01T05:04:34;20.35;;;14.98;;
33150;SDS011;19508;42.578;23.416;2022-09-01T05:07:04;25.02;;;15.02;;
33150;SDS011;19508;42.578;23.416;2022-09-01T05:09:32;29.17;;;14.32;;
33150;SDS011;19508;42.578;23.416;2022-09-01T05:11:59;23.23;;;14.55;;
33150;SDS011;19508;42.578;23.416;2022-09-01T05:14:35;21.63;;;14.77;;
33150;SDS011;19508;42.578;23.416;2022-09-01T05:17:03;24.00;;;12.43;;
33150;SDS011;19508;42.578;23.416;2022-09-01T05:19:34;25.58;;;13.25;;
33150;SDS011;19508;42.578;23.416;2022-09-01T05:22:01;18.80;;;13.18;;
33150;SDS011;19508;42.578;23.416;2022-09-01T05:24:29;20.70;;;11.45;;
33150;SDS011;19508;42.578;23.416;2022-09-01T05:26:58;18.63;;;12.68;;
33150;SDS011;19508;42.578;23.416;2022-09-01T05:29:24;20.70;;;12.38;;
33150;SDS011;19508;42.578;23.416;2022-09-01T05:31:52;17.15;;;12.43;;
33150;SDS011;19508;42.578;23.416;2022-09-01T05:34:19;19.00;;;11.98;;
33150;SDS011;19508;42.578;23.416;2022-09-01T05:36:54;22.52;;;11.73;;
33150;SDS011;19508;42.578;23.416;2022-09-01T05:39:23;15.70;;;12.32;;
33150;SDS011;19508;42.578;23.416;2022-09-01T05:41:49;18.52;;;11.80;;
33150;SDS011;19508;42.578;23.416;2022-09-01T05:44:16;18.48;;;11.73;;
33150;SDS011;19508;42.578;23.416;2022-09-01T05:46:43;17.50;;;11.10;;
33150;SDS011;19508;42.578;23.416;2022-09-01T05:49:09;18.35;;;11.57;;
33150;SDS011;19508;42.578;23.416;2022-09-01T05:51:38;16.33;;;11.55;;
33150;SDS011;19508;42.578;23.416;2022-09-01T05:54:05;15.60;;;11.82;;
33150;SDS011;19508;42.578;23.416;2022-09-01T05:56:34;17.90;;;11.50;;
33150;SDS011;19508;42.578;23.416;2022-09-01T05:59:02;17.90;;;11.90;;
33150;SDS011;19508;42.578;23.416;2022-09-01T06:01:28;18.20;;;12.77;;
33150;SDS011;19508;42.578;23.416;2022-09-01T06:03:57;20.17;;;12.13;;
33150;SDS011;19508;42.578;23.416;2022-09-01T06:06:29;18.42;;;12.52;;
33150;SDS011;19508;42.578;23.416;2022-09-01T06:09:02;21.17;;;12.77;;
33150;SDS011;19508;42.578;23.416;2022-09-01T06:11:29;18.80;;;11.57;;
33150;SDS011;19508;42.578;23.416;2022-09-01T06:13:57;16.17;;;11.73;;
33150;SDS011;19508;42.578;23.416;2022-09-01T06:16:24;22.45;;;12.68;;
33150;SDS011;19508;42.578;23.416;2022-09-01T06:18:50;21.15;;;11.65;;
33150;SDS011;19508;42.578;23.416;2022-09-01T06:21:18;15.10;;;11.63;;
33150;SDS011;19508;42.578;23.416;2022-09-01T06:23:45;19.88;;;11.15;;
33150;SDS011;19508;42.578;23.416;2022-09-01T06:26:20;21.00;;;12.55;;
33150;SDS011;19508;42.578;23.416;2022-09-01T06:28:58;15.82;;;11.75;;
33150;SDS011;19508;42.578;23.416;2022-09-01T06:31:31;19.10;;;11.77;;
33150;SDS011;19508;42.578;23.416;2022-09-01T06:33:58;19.45;;;11.40;;
33150;SDS011;19508;42.578;23.416;2022-09-01T06:36:25;19.45;;;11.75;;
33150;SDS011;19508;42.578;23.416;2022-09-01T06:41:53;14.77;;;10.82;;
33150;SDS011;19508;42.578;23.416;2022-09-01T06:44:19;13.48;;;9.38;;
33150;SDS011;19508;42.578;23.416;2022-09-01T06:46:47;16.40;;;10.75;;
33150;SDS011;19508;42.578;23.416;2022-09-01T06:49:13;15.23;;;10.25;;
33150;SDS011;19508;42.578;23.416;2022-09-01T06:51:39;22.48;;;10.73;;
33150;SDS011;19508;42.578;23.416;2022-09-01T06:54:04;20.70;;;10.18;;
33150;SDS011;19508;42.578;23.416;2022-09-01T06:56:31;23.35;;;9.65;;
33150;SDS011;19508;42.578;23.416;2022-09-01T06:58:58;15.15;;;10.77;;
33150;SDS011;19508;42.578;23.416;2022-09-01T07:01:25;14.48;;;9.90;;
33150;SDS011;19508;42.578;23.416;2022-09-01T07:03:52;14.00;;;10.00;;
33150;SDS011;19508;42.578;23.416;2022-09-01T07:06:21;14.02;;;9.50;;
33150;SDS011;19508;42.578;23.416;2022-09-01T07:08:52;17.98;;;9.63;;
33150;SDS011;19508;42.578;23.416;2022-09-01T07:13:57;19.65;;;9.75;;
33150;SDS011;19508;42.578;23.416;2022-09-01T07:16:26;15.60;;;9.77;;
33150;SDS011;19508;42.578;23.416;2022-09-01T07:18:54;23.75;;;9.20;;
33150;SDS011;19508;42.578;23.416;2022-09-01T07:21:22;14.85;;;9.27;;
33150;SDS011;19508;42.578;23.416;2022-09-01T07:26:59;14.35;;;8.68;;
33150;SDS011;19508;42.578;23.416;2022-09-01T07:29:25;21.13;;;11.98;;
33150;SDS011;19508;42.578;23.416;2022-09-01T07:31:50;21.45;;;14.38;;
33150;SDS011;19508;42.578;23.416;2022-09-01T07:34:17;23.38;;;13.45;;
33150;SDS011;19508;42.578;23.416;2022-09-01T07:36:43;21.80;;;12.60;;
33150;SDS011;19508;42.578;23.416;2022-09-01T07:39:09;23.15;;;13.38;;
33150;SDS011;19508;42.578;23.416;2022-09-01T07:41:36;23.52;;;14.00;;
33150;SDS011;19508;42.578;23.416;2022-09-01T07:44:03;23.92;;;14.80;;
33150;SDS011;19508;42.578;23.416;2022-09-01T07:46:32;27.02;;;16.30;;
33150;SDS011;19508;42.578;23.416;2022-09-01T07:48:57;31.80;;;15.25;;
33150;SDS011;19508;42.578;23.416;2022-09-01T07:51:25;28.73;;;17.63;;
33150;SDS011;19508;42.578;23.416;2022-09-01T07:53:52;27.33;;;17.40;;
33150;SDS011;19508;42.578;23.416;2022-09-01T07:56:19;27.55;;;17.60;;
33150;SDS011;19508;42.578;23.416;2022-09-01T07:58:46;27.95;;;17.77;;
33150;SDS011;19508;42.578;23.416;2022-09-01T08:01:15;27.13;;;17.17;;
33150;SDS011;19508;42.578;23.416;2022-09-01T08:03:51;33.60;;;17.17;;
33150;SDS011;19508;42.578;23.416;2022-09-01T08:06:20;24.85;;;16.38;;
33150;SDS011;19508;42.578;23.416;2022-09-01T08:08:47;23.60;;;15.27;;
33150;SDS011;19508;42.578;23.416;2022-09-01T08:11:22;22.40;;;15.20;;
33150;SDS011;19508;42.578;23.416;2022-09-01T08:13:51;27.98;;;15.35;;
33150;SDS011;19508;42.578;23.416;2022-09-01T08:16:17;26.42;;;15.68;;
33150;SDS011;19508;42.578;23.416;2022-09-01T08:18:44;23.05;;;13.98;;
33150;SDS011;19508;42.578;23.416;2022-09-01T08:21:12;28.75;;;14.90;;
33150;SDS011;19508;42.578;23.416;2022-09-01T08:23:39;25.05;;;12.77;;
33150;SDS011;19508;42.578;23.416;2022-09-01T08:26:06;27.10;;;14.07;;
33150;SDS011;19508;42.578;23.416;2022-09-01T08:28:33;22.77;;;12.80;;
33150;SDS011;19508;42.578;23.416;2022-09-01T08:30:59;21.33;;;13.40;;
33150;SDS011;19508;42.578;23.416;2022-09-01T08:33:25;23.00;;;12.65;;
33150;SDS011;19508;42.578;23.416;2022-09-01T08:35:51;32.78;;;14.10;;
33150;SDS011;19508;42.578;23.416;2022-09-01T08:38:18;26.95;;;13.70;;
33150;SDS011;19508;42.578;23.416;2022-09-01T08:40:49;27.85;;;12.57;;
33150;SDS011;19508;42.578;23.416;2022-09-01T08:45:54;23.13;;;10.97;;
33150;SDS011;19508;42.578;23.416;2022-09-01T08:48:41;18.58;;;10.57;;
33150;SDS011;19508;42.578;23.416;2022-09-01T08:53:55;17.97;;;10.97;;
33150;SDS011;19508;42.578;23.416;2022-09-01T08:56:27;23.17;;;10.05;;
33150;SDS011;19508;42.578;23.416;2022-09-01T08:58:52;22.58;;;9.25;;
33150;SDS011;19508;42.578;23.416;2022-09-01T09:01:24;22.33;;;10.98;;
33150;SDS011;19508;42.578;23.416;2022-09-01T09:06:39;21.52;;;10.65;;
33150;SDS011;19508;42.578;23.416;2022-09-01T09:09:08;23.77;;;11.10;;
33150;SDS011;19508;42.578;23.416;2022-09-01T09:17:21;28.83;;;11.60;;
33150;SDS011;19508;42.578;23.416;2022-09-01T09:19:51;19.23;;;11.45;;
33150;SDS011;19508;42.578;23.416;2022-09-01T09:22:18;22.00;;;11.88;;
33150;SDS011;19508;42.578;23.416;2022-09-01T09:29:49;24.58;;;12.50;;
33150;SDS011;19508;42.578;23.416;2022-09-01T09:32:24;19.83;;;12.30;;
33150;SDS011;19508;42.578;23.416;2022-09-01T09:35:33;30.92;;;12.95;;
33150;SDS011;19508;42.578;23.416;2022-09-01T09:38:32;18.88;;;11.88;;
33150;SDS011;19508;42.578;23.416;2022-09-01T09:43:25;19.55;;;11.13;;
33150;SDS011;19508;42.578;23.416;2022-09-01T09:46:19;20.58;;;12.02;;
33150;SDS011;19508;42.578;23.416;2022-09-01T09:51:52;20.27;;;11.10;;
33150;SDS011;19508;42.578;23.416;2022-09-01T09:54:26;18.30;;;10.68;;
33150;SDS011;19508;42.578;23.416;2022-09-01T09:59:31;20.88;;;11.77;;
33150;SDS011;19508;42.578;23.416;2022-09-01T10:07:51;20.98;;;10.77;;
33150;SDS011;19508;42.578;23.416;2022-09-01T10:10:35;26.05;;;10.65;;
33150;SDS011;19508;42.578;23.416;2022-09-01T10:13:01;19.00;;;9.90;;
33150;SDS011;19508;42.578;23.416;2022-09-01T10:15:29;21.08;;;11.02;;
33150;SDS011;19508;42.578;23.416;2022-09-01T10:18:01;24.85;;;10.68;;
33150;SDS011;19508;42.578;23.416;2022-09-01T10:20:32;14.27;;;9.40;;
33150;SDS011;19508;42.578;23.416;2022-09-01T10:23:01;17.17;;;9.85;;
33150;SDS011;19508;42.578;23.416;2022-09-01T10:25:28;21.58;;;9.60;;
33150;SDS011;19508;42.578;23.416;2022-09-01T10:28:16;19.20;;;10.15;;
33150;SDS011;19508;42.578;23.416;2022-09-01T10:30:48;24.42;;;10.30;;
33150;SDS011;19508;42.578;23.416;2022-09-01T10:33:16;23.05;;;9.93;;
33150;SDS011;19508;42.578;23.416;2022-09-01T10:35:44;14.93;;;9.32;;
33150;SDS011;19508;42.578;23.416;2022-09-01T10:38:22;23.85;;;9.05;;
33150;SDS011;19508;42.578;23.416;2022-09-01T10:40:51;19.80;;;9.82;;
33150;SDS011;19508;42.578;23.416;2022-09-01T10:43:47;17.13;;;10.50;;
33150;SDS011;19508;42.578;23.416;2022-09-01T10:46:40;15.18;;;9.00;;
33150;SDS011;19508;42.578;23.416;2022-09-01T10:51:51;21.63;;;9.70;;
33150;SDS011;19508;42.578;23.416;2022-09-01T10:57:02;34.97;;;10.38;;
33150;SDS011;19508;42.578;23.416;2022-09-01T10:59:34;22.70;;;10.10;;
33150;SDS011;19508;42.578;23.416;2022-09-01T11:07:01;22.70;;;10.60;;
33150;SDS011;19508;42.578;23.416;2022-09-01T11:12:16;22.23;;;10.50;;
33150;SDS011;19508;42.578;23.416;2022-09-01T11:19:55;15.35;;;9.75;;
33150;SDS011;19508;42.578;23.416;2022-09-01T11:22:37;36.55;;;10.75;;
33150;SDS011;19508;42.578;23.416;2022-09-01T11:33:00;15.98;;;9.82;;
33150;SDS011;19508;42.578;23.416;2022-09-01T11:35:35;20.35;;;10.00;;
33150;SDS011;19508;42.578;23.416;2022-09-01T11:38:02;18.35;;;9.77;;
33150;SDS011;19508;42.578;23.416;2022-09-01T11:40:32;20.13;;;10.18;;
33150;SDS011;19508;42.578;23.416;2022-09-01T11:42:59;26.75;;;10.02;;
33150;SDS011;19508;42.578;23.416;2022-09-01T11:45:31;24.40;;;9.73;;
33150;SDS011;19508;42.578;23.416;2022-09-01T11:48:01;22.90;;;9.98;;
33150;SDS011;19508;42.578;23.416;2022-09-01T11:53:00;17.45;;;9.48;;
33150;SDS011;19508;42.578;23.416;2022-09-01T11:55:40;24.65;;;10.15;;
33150;SDS011;19508;42.578;23.416;2022-09-01T11:58:09;23.23;;;10.27;;
33150;SDS011;19508;42.578;23.416;2022-09-01T12:00:37;23.95;;;10.45;;
33150;SDS011;19508;42.578;23.416;2022-09-01T12:03:09;20.13;;;9.95;;
33150;SDS011;19508;42.578;23.416;2022-09-01T12:05:44;18.92;;;10.30;;
33150;SDS011;19508;42.578;23.416;2022-09-01T12:08:17;25.33;;;11.00;;
33150;SDS011;19508;42.578;23.416;2022-09-01T12:10:43;23.13;;;10.33;;
33150;SDS011;19508;42.578;23.416;2022-09-01T12:15:41;21.45;;;9.55;;
33150;SDS011;19508;42.578;23.416;2022-09-01T12:18:08;23.17;;;10.07;;
33150;SDS011;19508;42.578;23.416;2022-09-01T12:20:39;18.83;;;10.63;;
33150;SDS011;19508;42.578;23.416;2022-09-01T12:23:14;27.38;;;9.90;;
33150;SDS011;19508;42.578;23.416;2022-09-01T12:26:04;18.48;;;9.60;;
33150;SDS011;19508;42.578;23.416;2022-09-01T12:28:30;17.13;;;9.05;;
33150;SDS011;19508;42.578;23.416;2022-09-01T12:31:17;20.98;;;8.40;;
33150;SDS011;19508;42.578;23.416;2022-09-01T12:33:46;14.75;;;8.35;;
33150;SDS011;19508;42.578;23.416;2022-09-01T12:36:28;15.82;;;8.23;;
33150;SDS011;19508;42.578;23.416;2022-09-01T12:39:22;16.33;;;7.77;;
33150;SDS011;19508;42.578;23.416;2022-09-01T12:42:03;19.02;;;7.95;;
33150;SDS011;19508;42.578;23.416;2022-09-01T12:47:06;10.43;;;6.97;;
33150;SDS011;19508;42.578;23.416;2022-09-01T12:49:47;15.02;;;7.10;;
33150;SDS011;19508;42.578;23.416;2022-09-01T12:54:50;13.43;;;7.13;;
33150;SDS011;19508;42.578;23.416;2022-09-01T12:57:34;12.88;;;6.32;;
33150;SDS011;19508;42.578;23.416;2022-09-01T13:02:41;15.57;;;6.72;;
33150;SDS011;19508;42.578;23.416;2022-09-01T13:07:52;17.73;;;7.32;;
33150;SDS011;19508;42.578;23.416;2022-09-01T13:10:19;17.95;;;8.43;;
33150;SDS011;19508;42.578;23.416;2022-09-01T13:12:47;17.05;;;8.68;;
33150;SDS011;19508;42.578;23.416;2022-09-01T13:15:12;18.08;;;9.10;;
33150;SDS011;19508;42.578;23.416;2022-09-01T13:17:38;23.38;;;9.18;;
33150;SDS011;19508;42.578;23.416;2022-09-01T13:20:04;17.80;;;10.18;;
33150;SDS011;19508;42.578;23.416;2022-09-01T13:22:31;19.10;;;9.45;;
33150;SDS011;19508;42.578;23.416;2022-09-01T13:24:56;20.85;;;9.95;;
33150;SDS011;19508;42.578;23.416;2022-09-01T13:27:22;29.85;;;9.90;;
33150;SDS011;19508;42.578;23.416;2022-09-01T13:29:48;24.75;;;9.98;;
33150;SDS011;19508;42.578;23.416;2022-09-01T13:32:14;27.88;;;10.20;;
33150;SDS011;19508;42.578;23.416;2022-09-01T13:34:41;26.60;;;9.25;;
33150;SDS011;19508;42.578;23.416;2022-09-01T13:37:08;17.65;;;9.85;;
33150;SDS011;19508;42.578;23.416;2022-09-01T13:39:33;21.48;;;11.00;;
33150;SDS011;19508;42.578;23.416;2022-09-01T13:41:59;22.13;;;11.38;;
33150;SDS011;19508;42.578;23.416;2022-09-01T13:44:25;24.63;;;12.43;;
33150;SDS011;19508;42.578;23.416;2022-09-01T13:46:50;22.83;;;12.82;;
33150;SDS011;19508;42.578;23.416;2022-09-01T13:49:16;17.40;;;13.55;;
33150;SDS011;19508;42.578;23.416;2022-09-01T13:51:41;27.30;;;14.45;;
33150;SDS011;19508;42.578;23.416;2022-09-01T13:54:07;24.73;;;14.10;;
33150;SDS011;19508;42.578;23.416;2022-09-01T13:56:32;30.10;;;15.75;;
33150;SDS011;19508;42.578;23.416;2022-09-01T13:58:59;22.75;;;14.38;;
33150;SDS011;19508;42.578;23.416;2022-09-01T14:01:24;27.17;;;14.68;;
33150;SDS011;19508;42.578;23.416;2022-09-01T14:03:50;18.88;;;13.30;;
33150;SDS011;19508;42.578;23.416;2022-09-01T14:06:16;22.63;;;14.32;;
33150;SDS011;19508;42.578;23.416;2022-09-01T14:08:41;22.55;;;14.38;;
33150;SDS011;19508;42.578;23.416;2022-09-01T14:11:06;20.63;;;14.18;;
33150;SDS011;19508;42.578;23.416;2022-09-01T14:13:32;27.80;;;15.48;;
33150;SDS011;19508;42.578;23.416;2022-09-01T14:15:59;21.08;;;14.60;;
33150;SDS011;19508;42.578;23.416;2022-09-01T14:18:24;28.52;;;14.73;;
33150;SDS011;19508;42.578;23.416;2022-09-01T14:21:00;27.15;;;15.23;;
33150;SDS011;19508;42.578;23.416;2022-09-01T14:23:26;24.80;;;16.02;;
33150;SDS011;19508;42.578;23.416;2022-09-01T14:25:52;33.13;;;15.35;;
33150;SDS011;19508;42.578;23.416;2022-09-01T14:28:19;27.88;;;15.75;;
33150;SDS011;19508;42.578;23.416;2022-09-01T14:30:46;26.33;;;16.33;;
33150;SDS011;19508;42.578;23.416;2022-09-01T14:33:12;32.70;;;16.75;;
33150;SDS011;19508;42.578;23.416;2022-09-01T14:35:39;34.60;;;18.23;;
33150;SDS011;19508;42.578;23.416;2022-09-01T14:38:06;24.90;;;16.20;;
33150;SDS011;19508;42.578;23.416;2022-09-01T14:40:33;24.52;;;16.20;;
33150;SDS011;19508;42.578;23.416;2022-09-01T14:43:01;24.38;;;16.55;;
33150;SDS011;19508;42.578;23.416;2022-09-01T14:45:28;31.20;;;17.02;;
33150;SDS011;19508;42.578;23.416;2022-09-01T14:47:55;29.02;;;16.90;;
33150;SDS011;19508;42.578;23.416;2022-09-01T14:50:23;26.05;;;16.15;;
33150;SDS011;19508;42.578;23.416;2022-09-01T14:52:50;26.02;;;16.80;;
33150;SDS011;19508;42.578;23.416;2022-09-01T14:55:18;28.73;;;16.52;;
33150;SDS011;19508;42.578;23.416;2022-09-01T14:57:45;23.27;;;16.15;;
33150;SDS011;19508;42.578;23.416;2022-09-01T15:00:11;32.15;;;17.05;;
33150;SDS011;19508;42.578;23.416;2022-09-01T15:02:40;25.38;;;17.25;;
33150;SDS011;19508;42.578;23.416;2022-09-01T15:05:07;24.65;;;16.40;;
33150;SDS011;19508;42.578;23.416;2022-09-01T15:07:34;28.20;;;16.85;;
33150;SDS011;19508;42.578;23.416;2022-09-01T15:10:00;25.00;;;16.90;;
33150;SDS011;19508;42.578;23.416;2022-09-01T15:12:26;23.75;;;16.45;;
33150;SDS011;19508;42.578;23.416;2022-09-01T15:14:55;29.83;;;16.42;;
33150;SDS011;19508;42.578;23.416;2022-09-01T15:17:21;25.00;;;16.73;;
33150;SDS011;19508;42.578;23.416;2022-09-01T15:19:47;22.67;;;17.80;;
33150;SDS011;19508;42.578;23.416;2022-09-01T15:22:12;34.20;;;16.92;;
33150;SDS011;19508;42.578;23.416;2022-09-01T15:24:38;25.23;;;16.85;;
33150;SDS011;19508;42.578;23.416;2022-09-01T15:27:04;25.67;;;17.10;;
33150;SDS011;19508;42.578;23.416;2022-09-01T15:29:30;24.92;;;16.85;;
33150;SDS011;19508;42.578;23.416;2022-09-01T15:31:58;35.35;;;16.30;;
33150;SDS011;19508;42.578;23.416;2022-09-01T15:34:25;26.05;;;14.80;;
33150;SDS011;19508;42.578;23.416;2022-09-01T15:36:54;23.25;;;16.02;;
33150;SDS011;19508;42.578;23.416;2022-09-01T15:39:20;19.65;;;14.32;;
33150;SDS011;19508;42.578;23.416;2022-09-01T15:41:45;30.63;;;16.17;;
33150;SDS011;19508;42.578;23.416;2022-09-01T15:44:11;27.52;;;16.30;;
33150;SDS011;19508;42.578;23.416;2022-09-01T15:46:36;28.08;;;16.35;;
33150;SDS011;19508;42.578;23.416;2022-09-01T15:49:07;36.90;;;16.70;;
33150;SDS011;19508;42.578;23.416;2022-09-01T15:54:08;22.30;;;16.08;;
33150;SDS011;19508;42.578;23.416;2022-09-01T15:56:34;31.92;;;15.68;;
33150;SDS011;19508;42.578;23.416;2022-09-01T15:59:00;24.42;;;17.00;;